Time;durP1;ratioP1;P1;durP2;ratioP2;P2;SDS_P1;SDS_P2;PMS_P1;PMS_P2;Temp;Humidity;BMP_temperature;BMP_pressure;BME280_temperature;BME280_humidity;BME280_pressure;Samples;Min_cycle;Max_cycle;Signal;HPM_P1;HPM_P2
2022/07/11 00:01:09;;;;;;;;;;;19.10;96.30;;;;;;4360533;32;42994;-76
2022/07/11 00:03:36;;;;;;;;;;;19.10;96.20;;;;;;4363386;32;43859;-76
2022/07/11 00:06:03;;;;;;;;;;;19.10;96.30;;;;;;4376760;32;43594;-77
2022/07/11 00:08:30;;;;;;;;;;;19.10;96.30;;;;;;4363818;32;42092;-76
2022/07/11 00:10:57;;;;;;;;;;;19.10;96.20;;;;;;4363383;32;43247;-76
2022/07/11 00:13:24;;;;;;;;;;;19.10;96.30;;;;;;4376685;32;42569;-77
2022/07/11 00:15:51;;;;;;;;;;;19.00;96.20;;;;;;4377160;32;43474;-76
2022/07/11 00:18:19;;;;;;;;;;;19.00;96.20;;;;;;4376672;32;43091;-76
2022/07/11 00:20:46;;;;;;;;;;;19.00;96.30;;;;;;4377046;32;43921;-76
2022/07/11 00:23:13;;;;;;;;;;;19.00;96.20;;;;;;4363758;32;43200;-76
2022/07/11 00:25:40;;;;;;;;;;;19.00;96.10;;;;;;4363551;32;44164;-77
2022/07/11 00:28:07;;;;;;;;;;;19.00;96.20;;;;;;4377232;32;43023;-76
2022/07/11 00:30:34;;;;;;;;;;;19.00;96.20;;;;;;4376861;32;42130;-77
2022/07/11 00:33:01;;;;;;;;;;;19.00;96.20;;;;;;4377008;32;44145;-76
2022/07/11 00:35:28;;;;;;;;;;;19.00;96.10;;;;;;4363047;32;44782;-76
2022/07/11 00:37:55;;;;;;;;;;;18.90;96.20;;;;;;4376426;32;43764;-77
2022/07/11 00:40:23;;;;;;;;;;;18.90;96.20;;;;;;4363385;32;43462;-77
2022/07/11 00:42:50;;;;;;;;;;;18.90;96.20;;;;;;4363520;32;42987;-77
2022/07/11 00:45:17;;;;;;;;;;;18.90;96.20;;;;;;4376843;32;43073;-77
2022/07/11 00:47:44;;;;;;;;;;;18.90;96.20;;;;;;4376213;32;43936;-77
2022/07/11 00:50:11;;;;;;;;;;;18.90;96.30;;;;;;4376252;32;43891;-77
2022/07/11 00:52:38;;;;;;;;;;;18.90;96.20;;;;;;4363292;32;44224;-77
2022/07/11 00:55:06;;;;;;;;;;;18.90;96.20;;;;;;4376648;32;42817;-77
2022/07/11 00:57:34;;;;;;;;;;;18.80;96.30;;;;;;4376694;32;44313;-77
2022/07/11 01:00:01;;;;;;;;;;;18.80;96.30;;;;;;4362900;32;43486;-77
2022/07/11 01:02:28;;;;;;;;;;;18.80;96.20;;;;;;4376107;32;43756;-77
2022/07/11 01:04:55;;;;;;;;;;;18.80;96.30;;;;;;4362984;32;43303;-76
2022/07/11 01:07:23;;;;;;;;;;;18.80;96.40;;;;;;4376223;32;43889;-77
2022/07/11 01:09:50;;;;;;;;;;;18.80;96.40;;;;;;4376435;32;45046;-77
2022/07/11 01:12:17;;;;;;;;;;;18.80;96.40;;;;;;4362643;32;42423;-77
2022/07/11 01:14:52;;;;;;;;;;;18.80;96.40;;;;;;4361690;32;43449;-76
2022/07/11 01:17:19;;;;;;;;;;;18.80;96.40;;;;;;4362857;32;43271;-77
2022/07/11 01:19:46;;;;;;;;;;;18.80;96.50;;;;;;4375892;32;43303;-76
2022/07/11 01:22:14;;;;;;;;;;;18.70;96.40;;;;;;4375843;32;43237;-77
2022/07/11 01:24:42;;;;;;;;;;;18.80;96.50;;;;;;4375723;32;43865;-77
2022/07/11 01:27:10;;;;;;;;;;;18.80;96.50;;;;;;4362229;32;43872;-77
2022/07/11 01:29:38;;;;;;;;;;;18.80;96.50;;;;;;4375937;32;43266;-77
2022/07/11 01:32:06;;;;;;;;;;;18.80;96.40;;;;;;4362158;32;43291;-76
2022/07/11 01:34:34;;;;;;;;;;;18.70;96.40;;;;;;4376112;32;43761;-76
2022/07/11 01:37:01;;;;;;;;;;;18.70;96.30;;;;;;4375526;32;43943;-76
2022/07/11 01:39:29;;;;;;;;;;;18.70;96.40;;;;;;4362782;32;43188;-76
2022/07/11 01:41:57;;;;;;;;;;;18.70;96.50;;;;;;4375502;32;42301;-76
2022/07/11 01:44:24;;;;;;;;;;;18.70;96.50;;;;;;4362623;32;45685;-76
2022/07/11 01:46:52;;;;;;;;;;;18.70;96.40;;;;;;4375421;32;43102;-75
2022/07/11 01:49:19;;;;;;;;;;;18.70;96.50;;;;;;4361962;32;44275;-77
2022/07/11 01:51:46;;;;;;;;;;;18.70;96.50;;;;;;4375326;32;42715;-76
2022/07/11 01:54:13;;;;;;;;;;;18.70;96.50;;;;;;4375364;32;43756;-76
2022/07/11 01:56:40;;;;;;;;;;;18.70;96.50;;;;;;4362182;32;43939;-76
2022/07/11 01:59:08;;;;;;;;;;;18.70;96.50;;;;;;4361806;32;44135;-76
2022/07/11 02:01:35;;;;;;;;;;;18.70;96.50;;;;;;4375456;32;43516;-76
2022/07/11 02:04:02;;;;;;;;;;;18.70;96.50;;;;;;4362179;32;45746;-76
2022/07/11 02:06:29;;;;;;;;;;;18.60;96.50;;;;;;4375171;32;42920;-76
2022/07/11 02:08:56;;;;;;;;;;;18.60;96.50;;;;;;4375419;32;44206;-76
2022/07/11 02:11:23;;;;;;;;;;;18.60;96.50;;;;;;4375135;32;43179;-76
2022/07/11 02:13:50;;;;;;;;;;;18.60;96.50;;;;;;4361763;32;42686;-76
2022/07/11 02:16:18;;;;;;;;;;;18.60;96.50;;;;;;4375323;32;45770;-76
2022/07/11 02:18:45;;;;;;;;;;;18.60;96.50;;;;;;4361555;32;42543;-76
2022/07/11 02:21:12;;;;;;;;;;;18.50;96.50;;;;;;4361613;32;44265;-75
2022/07/11 02:23:39;;;;;;;;;;;18.50;96.50;;;;;;4375440;32;44775;-75
2022/07/11 02:26:07;;;;;;;;;;;18.50;96.50;;;;;;4375218;32;43178;-75
2022/07/11 02:28:34;;;;;;;;;;;18.50;96.50;;;;;;4375559;32;43846;-76
2022/07/11 02:31:01;;;;;;;;;;;18.50;96.50;;;;;;4361555;32;42780;-77
2022/07/11 02:33:28;;;;;;;;;;;18.50;96.50;;;;;;4374890;32;45138;-76
2022/07/11 02:35:55;;;;;;;;;;;18.40;96.50;;;;;;4361534;32;43599;-75
2022/07/11 02:38:22;;;;;;;;;;;18.40;96.50;;;;;;4374987;32;43846;-75
2022/07/11 02:40:50;;;;;;;;;;;18.40;96.60;;;;;;4375029;32;42928;-75
2022/07/11 02:43:17;;;;;;;;;;;18.40;96.60;;;;;;4361882;32;43474;-76
2022/07/11 02:45:44;;;;;;;;;;;18.40;96.60;;;;;;4361672;32;44172;-76
2022/07/11 02:48:11;;;;;;;;;;;18.40;96.60;;;;;;4374586;32;44290;-76
2022/07/11 02:50:38;;;;;;;;;;;18.40;96.60;;;;;;4374958;32;43321;-76
2022/07/11 02:53:05;;;;;;;;;;;18.40;96.60;;;;;;4361220;32;42878;-77
2022/07/11 02:55:32;;;;;;;;;;;18.40;96.60;;;;;;4374760;32;43892;-76
2022/07/11 02:57:59;;;;;;;;;;;18.30;96.60;;;;;;4361227;32;44292;-76
2022/07/11 03:00:27;;;;;;;;;;;18.40;96.60;;;;;;4374985;32;43605;-76
2022/07/11 03:02:54;;;;;;;;;;;18.40;96.60;;;;;;4361084;32;43879;-76
2022/07/11 03:05:21;;;;;;;;;;;18.30;96.60;;;;;;4374980;32;43188;-76
2022/07/11 03:07:49;;;;;;;;;;;18.30;96.60;;;;;;4361005;32;43355;-76
2022/07/11 03:10:16;;;;;;;;;;;18.30;96.60;;;;;;4361065;32;44152;-76
2022/07/11 03:12:43;;;;;;;;;;;18.30;96.60;;;;;;4361445;32;43221;-76
2022/07/11 03:15:10;;;;;;;;;;;18.30;96.60;;;;;;4361000;32;44105;-76
2022/07/11 03:17:38;;;;;;;;;;;18.30;96.60;;;;;;4361038;32;43570;-76
2022/07/11 03:20:05;;;;;;;;;;;18.30;96.70;;;;;;4375022;32;43473;-76
2022/07/11 03:22:32;;;;;;;;;;;18.30;96.70;;;;;;4375525;32;20009;-76
2022/07/11 03:25:00;;;;;;;;;;;18.30;96.60;;;;;;4361252;32;43102;-76
2022/07/11 03:27:27;;;;;;;;;;;18.30;96.70;;;;;;4361399;32;43698;-76
2022/07/11 03:29:54;;;;;;;;;;;18.30;96.70;;;;;;4361369;32;44292;-76
2022/07/11 03:32:22;;;;;;;;;;;18.30;96.70;;;;;;4374606;32;43340;-76
2022/07/11 03:37:40;;;;;;;;;;;18.30;96.70;;;;;;4375821;32;45688;-76
2022/07/11 03:40:08;;;;;;;;;;;18.20;96.70;;;;;;4363803;32;43494;-76
2022/07/11 03:42:35;;;;;;;;;;;18.30;96.80;;;;;;4363860;32;43482;-76
2022/07/11 03:45:02;;;;;;;;;;;18.20;96.80;;;;;;4364230;32;43981;-76
2022/07/11 03:47:29;;;;;;;;;;;18.20;96.80;;;;;;4377385;32;42745;-76
2022/07/11 03:49:56;;;;;;;;;;;18.20;96.80;;;;;;4363683;32;42880;-76
2022/07/11 03:52:23;;;;;;;;;;;18.20;96.80;;;;;;4377050;32;42935;-76
2022/07/11 03:54:52;;;;;;;;;;;18.20;96.90;;;;;;4376956;32;42383;-76
2022/07/11 03:57:19;;;;;;;;;;;18.20;96.80;;;;;;4363559;32;42936;-76
2022/07/11 03:59:46;;;;;;;;;;;18.20;96.80;;;;;;4377126;32;44183;-76
2022/07/11 04:02:13;;;;;;;;;;;18.20;96.70;;;;;;4376711;32;42914;-76
2022/07/11 04:04:40;;;;;;;;;;;18.10;96.70;;;;;;4363428;32;42654;-76
2022/07/11 04:07:07;;;;;;;;;;;18.10;96.60;;;;;;4363393;32;43716;-76
2022/07/11 04:09:34;;;;;;;;;;;18.10;96.50;;;;;;4363463;32;43063;-77
2022/07/11 04:12:01;;;;;;;;;;;18.10;96.60;;;;;;4376974;32;42850;-76
2022/07/11 04:14:28;;;;;;;;;;;18.10;96.60;;;;;;4376966;32;42089;-76
2022/07/11 04:16:55;;;;;;;;;;;18.10;96.70;;;;;;4376990;32;44089;-76
2022/07/11 04:19:23;;;;;;;;;;;18.00;96.80;;;;;;4377015;32;43473;-76
2022/07/11 04:21:50;;;;;;;;;;;18.00;96.80;;;;;;4376654;32;43426;-76
2022/07/11 04:24:17;;;;;;;;;;;18.00;96.80;;;;;;4376635;32;42626;-76
2022/07/11 04:26:44;;;;;;;;;;;18.00;96.80;;;;;;4376827;32;43492;-76
2022/07/11 04:29:12;;;;;;;;;;;18.00;96.80;;;;;;4363154;32;42840;-76
2022/07/11 04:31:39;;;;;;;;;;;18.00;96.80;;;;;;4376498;32;43497;-76
2022/07/11 04:34:06;;;;;;;;;;;18.00;96.80;;;;;;4363530;32;42696;-76
2022/07/11 04:36:33;;;;;;;;;;;18.00;96.90;;;;;;4363535;32;43249;-76
2022/07/11 04:39:00;;;;;;;;;;;17.90;96.90;;;;;;4376481;32;42964;-76
2022/07/11 04:41:27;;;;;;;;;;;17.90;96.90;;;;;;4363508;32;43477;-76
2022/07/11 04:43:54;;;;;;;;;;;17.90;96.90;;;;;;4376328;32;44250;-76
2022/07/11 04:46:21;;;;;;;;;;;17.90;96.90;;;;;;4363164;32;43003;-76
2022/07/11 04:48:51;;;;;;;;;;;17.90;97.00;;;;;;4376515;32;43026;-76
2022/07/11 04:51:18;;;;;;;;;;;18.00;97.00;;;;;;4362799;32;42611;-76
2022/07/11 04:53:46;;;;;;;;;;;17.90;97.00;;;;;;4376215;32;42629;-76
2022/07/11 04:56:13;;;;;;;;;;;17.90;97.10;;;;;;4362933;32;42499;-77
2022/07/11 04:58:40;;;;;;;;;;;17.90;97.10;;;;;;4376552;32;42912;-76
2022/07/11 05:01:08;;;;;;;;;;;17.90;97.20;;;;;;4363035;32;43487;-76
2022/07/11 05:03:36;;;;;;;;;;;17.90;97.20;;;;;;4376090;32;44263;-76
2022/07/11 05:06:03;;;;;;;;;;;17.90;97.20;;;;;;4375833;32;42978;-76
2022/07/11 05:08:31;;;;;;;;;;;17.90;97.30;;;;;;4362648;32;44854;-77
2022/07/11 05:10:58;;;;;;;;;;;17.90;97.30;;;;;;4375992;32;43491;-77
2022/07/11 05:13:25;;;;;;;;;;;17.90;97.30;;;;;;4362416;32;45483;-76
2022/07/11 05:15:52;;;;;;;;;;;17.90;97.40;;;;;;4362979;32;43715;-76
2022/07/11 05:18:22;;;;;;;;;;;17.90;97.40;;;;;;4364390;32;20409;-77
2022/07/11 05:20:49;;;;;;;;;;;17.90;97.50;;;;;;4375890;32;42487;-77
2022/07/11 05:23:16;;;;;;;;;;;17.90;97.60;;;;;;4376081;32;42852;-77
2022/07/11 05:25:43;;;;;;;;;;;17.80;98.00;;;;;;4375705;32;42021;-77
2022/07/11 05:28:11;;;;;;;;;;;17.90;97.80;;;;;;4375904;32;42771;-76
2022/07/11 05:30:38;;;;;;;;;;;17.90;97.90;;;;;;4362712;32;45746;-76
2022/07/11 05:33:05;;;;;;;;;;;17.90;98.10;;;;;;4362687;32;44223;-76
2022/07/11 05:35:32;;;;;;;;;;;17.90;98.10;;;;;;4375814;32;43926;-77
2022/07/11 05:37:59;;;;;;;;;;;17.90;98.40;;;;;;4362773;32;43904;-77
2022/07/11 05:40:26;;;;;;;;;;;17.90;98.50;;;;;;4375416;32;45520;-77
2022/07/11 05:42:53;;;;;;;;;;;17.90;98.40;;;;;;4375778;32;43608;-77
2022/07/11 05:45:20;;;;;;;;;;;17.90;98.50;;;;;;4375740;32;43042;-77
2022/07/11 05:47:47;;;;;;;;;;;17.90;98.90;;;;;;4361984;32;43947;-76
2022/07/11 05:50:14;;;;;;;;;;;17.90;98.70;;;;;;4375363;32;43213;-77
2022/07/11 05:52:41;;;;;;;;;;;17.90;98.90;;;;;;4375678;32;42167;-77
2022/07/11 05:55:08;;;;;;;;;;;17.90;99.20;;;;;;4375267;32;43384;-78
2022/07/11 05:57:44;;;;;;;;;;;17.90;99.20;;;;;;4375652;32;43683;-77
2022/07/11 06:00:11;;;;;;;;;;;18.00;99.30;;;;;;4361842;32;43237;-77
2022/07/11 06:02:38;;;;;;;;;;;18.00;99.50;;;;;;4358995;32;43927;-77
2022/07/11 06:05:06;;;;;;;;;;;18.00;99.70;;;;;;4360654;32;43874;-77
2022/07/11 06:10:25;;;;;;;;;;;18.00;99.90;;;;;;4360600;32;43478;-76
2022/07/11 06:12:52;;;;;;;;;;;18.00;99.70;;;;;;4359125;32;39699;-75
2022/07/11 06:15:19;;;;;;;;;;;18.00;99.80;;;;;;4360618;32;45015;-76
2022/07/11 06:17:47;;;;;;;;;;;18.00;99.90;;;;;;4358933;32;42775;-76
2022/07/11 06:20:14;;;;;;;;;;;18.00;99.90;;;;;;4359238;32;43224;-75
2022/07/11 06:22:41;;;;;;;;;;;18.00;99.90;;;;;;4360373;32;42756;-75
2022/07/11 06:25:09;;;;;;;;;;;18.00;99.90;;;;;;4359913;32;42628;-75
2022/07/11 06:27:36;;;;;;;;;;;18.10;99.90;;;;;;4360343;32;44178;-75
2022/07/11 06:30:03;;;;;;;;;;;18.10;99.90;;;;;;4359995;32;43303;-75
2022/07/11 06:32:31;;;;;;;;;;;18.10;99.90;;;;;;4360133;32;43239;-76
2022/07/11 06:34:58;;;;;;;;;;;18.10;99.90;;;;;;4359413;32;43494;-76
2022/07/11 06:37:25;;;;;;;;;;;18.10;99.90;;;;;;4358860;32;43755;-76
2022/07/11 06:39:52;;;;;;;;;;;18.10;99.90;;;;;;4360357;32;44057;-75
2022/07/11 06:42:19;;;;;;;;;;;18.10;99.90;;;;;;4359741;32;44249;-76
2022/07/11 06:44:52;;;;;;;;;;;18.10;99.90;;;;;;4360238;32;45707;-75
2022/07/11 06:47:19;;;;;;;;;;;18.20;99.90;;;;;;4358938;32;42758;-75
2022/07/11 06:49:46;;;;;;;;;;;18.20;99.90;;;;;;4360096;32;43205;-76
2022/07/11 06:52:16;;;;;;;;;;;18.20;99.90;;;;;;4360193;32;43273;-75
2022/07/11 06:54:43;;;;;;;;;;;18.20;99.90;;;;;;4360015;32;45668;-76
2022/07/11 06:57:10;;;;;;;;;;;18.20;99.90;;;;;;4360266;32;44807;-75
2022/07/11 06:59:38;;;;;;;;;;;18.20;99.90;;;;;;4359692;32;44291;-76
2022/07/11 07:02:05;;;;;;;;;;;18.20;99.90;;;;;;4365370;32;45346;-76
2022/07/11 07:04:33;;;;;;;;;;;18.20;99.90;;;;;;4374590;32;43637;-76
2022/07/11 07:07:01;;;;;;;;;;;18.20;99.90;;;;;;4361069;32;42866;-76
2022/07/11 07:09:29;;;;;;;;;;;18.20;99.90;;;;;;4374454;32;42599;-76
2022/07/11 07:11:57;;;;;;;;;;;18.20;99.90;;;;;;4361192;32;42854;-75
2022/07/11 07:14:24;;;;;;;;;;;18.20;99.90;;;;;;4364394;32;43571;-76
2022/07/11 07:16:51;;;;;;;;;;;18.30;99.90;;;;;;4377970;32;43335;-76
2022/07/11 07:19:20;;;;;;;;;;;18.30;99.90;;;;;;4377569;32;43270;-76
2022/07/11 07:21:47;;;;;;;;;;;18.20;99.90;;;;;;4377954;32;43355;-76
2022/07/11 07:24:14;;;;;;;;;;;18.30;99.90;;;;;;4377601;32;43679;-76
2022/07/11 07:26:44;;;;;;;;;;;18.30;99.90;;;;;;4378098;32;43258;-76
2022/07/11 07:29:11;;;;;;;;;;;18.30;99.90;;;;;;4377611;32;43866;-76
2022/07/11 07:31:38;;;;;;;;;;;18.30;99.90;;;;;;4377861;32;44219;-76
2022/07/11 07:34:06;;;;;;;;;;;18.30;99.90;;;;;;4363881;32;43376;-76
2022/07/11 07:36:33;;;;;;;;;;;18.30;99.90;;;;;;4363886;32;43717;-76
2022/07/11 07:39:00;;;;;;;;;;;18.30;99.90;;;;;;4364349;32;45078;-76
2022/07/11 07:41:27;;;;;;;;;;;18.30;99.90;;;;;;4377213;32;43009;-75
2022/07/11 07:43:54;;;;;;;;;;;18.30;99.90;;;;;;4377207;32;42859;-76
2022/07/11 07:46:22;;;;;;;;;;;18.30;99.90;;;;;;4377139;32;42753;-76
2022/07/11 07:48:49;;;;;;;;;;;18.30;99.90;;;;;;4363681;32;42805;-76
2022/07/11 07:51:16;;;;;;;;;;;18.30;99.90;;;;;;4377373;32;43779;-76
2022/07/11 07:53:43;;;;;;;;;;;18.40;99.90;;;;;;4363835;32;43699;-76
2022/07/11 07:56:11;;;;;;;;;;;18.30;99.90;;;;;;4363982;32;45481;-76
2022/07/11 07:58:38;;;;;;;;;;;18.40;99.90;;;;;;4377269;32;44246;-76
2022/07/11 08:03:53;;;;;;;;;;;18.40;99.90;;;;;;4377516;32;43869;-75
2022/07/11 08:06:20;;;;;;;;;;;18.40;99.90;;;;;;4363645;32;44198;-76
2022/07/11 08:08:49;;;;;;;;;;;18.40;99.90;;;;;;4377424;32;43905;-76
2022/07/11 08:11:16;;;;;;;;;;;18.40;99.90;;;;;;4363966;32;45378;-76
2022/07/11 08:13:59;;;;;;;;;;;18.40;99.90;;;;;;4377251;32;42099;-76
2022/07/11 08:16:28;;;;;;;;;;;18.40;99.90;;;;;;4363842;32;43191;-76
2022/07/11 08:18:57;;;;;;;;;;;18.50;99.90;;;;;;4377074;32;42638;-77
2022/07/11 08:21:25;;;;;;;;;;;18.40;99.90;;;;;;4363888;32;43234;-76
2022/07/11 08:23:52;;;;;;;;;;;18.40;99.90;;;;;;4376694;32;44221;-76
2022/07/11 08:26:19;;;;;;;;;;;18.40;99.90;;;;;;4363385;32;42781;-75
2022/07/11 08:28:46;;;;;;;;;;;18.40;99.90;;;;;;4363525;32;44067;-75
2022/07/11 08:31:13;;;;;;;;;;;18.40;99.90;;;;;;4363140;32;44235;-76
2022/07/11 08:33:40;;;;;;;;;;;18.50;99.90;;;;;;4363322;32;42888;-76
2022/07/11 08:36:07;;;;;;;;;;;18.50;99.90;;;;;;4363078;32;43978;-75
2022/07/11 08:38:34;;;;;;;;;;;18.50;99.90;;;;;;4363527;32;44118;-76
2022/07/11 08:41:03;;;;;;;;;;;18.50;99.90;;;;;;4376835;32;43357;-75
2022/07/11 08:43:31;;;;;;;;;;;18.50;99.90;;;;;;4376422;32;44192;-76
2022/07/11 08:45:59;;;;;;;;;;;18.50;99.90;;;;;;4363146;32;42887;-76
2022/07/11 08:48:27;;;;;;;;;;;18.50;99.90;;;;;;4376457;32;44201;-75
2022/07/11 08:50:54;;;;;;;;;;;18.50;99.90;;;;;;4376579;32;42978;-76
2022/07/11 08:53:22;;;;;;;;;;;18.50;99.90;;;;;;4362804;32;42852;-75
2022/07/11 08:55:49;;;;;;;;;;;18.50;99.90;;;;;;4376592;32;42331;-76
2022/07/11 08:58:17;;;;;;;;;;;18.50;99.90;;;;;;4376683;32;44228;-76
2022/07/11 09:00:44;;;;;;;;;;;18.50;99.90;;;;;;4363123;32;44948;-76
2022/07/11 09:03:18;;;;;;;;;;;18.50;99.90;;;;;;4376158;32;43893;-75
2022/07/11 09:05:45;;;;;;;;;;;18.60;99.90;;;;;;4376690;32;44179;-76
2022/07/11 09:08:12;;;;;;;;;;;18.60;99.90;;;;;;4376552;32;42900;-76
2022/07/11 09:10:40;;;;;;;;;;;18.60;99.90;;;;;;4375914;32;43611;-76
2022/07/11 09:13:08;;;;;;;;;;;18.60;99.90;;;;;;4362679;32;42584;-76
2022/07/11 09:15:39;;;;;;;;;;;18.60;99.90;;;;;;4376421;32;44179;-75
2022/07/11 09:18:24;;;;;;;;;;;18.60;99.90;;;;;;4363069;32;44204;-76
2022/07/11 09:26:30;;;;;;;;;;;18.60;99.90;;;;;;4376236;32;44828;-76
2022/07/11 09:28:58;;;;;;;;;;;18.60;99.90;;;;;;4376209;32;43228;-76
2022/07/11 09:31:26;;;;;;;;;;;18.60;99.90;;;;;;4362645;32;41811;-76
2022/07/11 09:34:17;;;;;;;;;;;18.60;99.90;;;;;;4375887;32;44228;-76
2022/07/11 09:36:45;;;;;;;;;;;18.60;99.90;;;;;;4368099;32;43152;-76
2022/07/11 09:39:16;;;;;;;;;;;18.70;99.90;;;;;;4362484;32;42854;-76
2022/07/11 09:41:44;;;;;;;;;;;18.70;99.90;;;;;;4362130;32;43065;-77
2022/07/11 09:44:17;;;;;;;;;;;18.70;99.90;;;;;;4362513;32;42724;-76
2022/07/11 09:46:46;;;;;;;;;;;18.70;99.90;;;;;;4375931;32;43620;-76
2022/07/11 09:49:14;;;;;;;;;;;18.70;99.90;;;;;;4375356;32;42377;-75
2022/07/11 09:51:41;;;;;;;;;;;18.70;99.90;;;;;;4362336;32;43966;-76
2022/07/11 09:54:08;;;;;;;;;;;18.70;99.90;;;;;;4376040;32;43474;-76
2022/07/11 09:56:41;;;;;;;;;;;18.70;99.90;;;;;;4362416;32;42628;-76
2022/07/11 09:59:24;;;;;;;;;;;18.70;99.90;;;;;;4375959;32;43303;-76
2022/07/11 10:01:51;;;;;;;;;;;18.70;99.90;;;;;;4375240;32;44211;-76
2022/07/11 10:04:18;;;;;;;;;;;18.70;99.90;;;;;;4375265;32;43764;-76
2022/07/11 10:06:46;;;;;;;;;;;18.70;99.90;;;;;;4375117;32;44359;-76
2022/07/11 10:09:13;;;;;;;;;;;18.70;99.90;;;;;;4361720;32;42504;-76
2022/07/11 10:11:40;;;;;;;;;;;18.70;99.90;;;;;;4375755;32;44195;-76
2022/07/11 10:14:07;;;;;;;;;;;18.70;99.90;;;;;;4375725;32;44227;-76
2022/07/11 10:16:50;;;;;;;;;;;18.80;99.90;;;;;;4361887;32;44768;-75
2022/07/11 10:19:26;;;;;;;;;;;18.80;99.90;;;;;;4362149;32;44196;-77
2022/07/11 10:22:02;;;;;;;;;;;18.80;99.90;;;;;;4361770;32;43650;-76
2022/07/11 10:24:48;;;;;;;;;;;18.80;99.90;;;;;;4361865;32;43253;-76
2022/07/11 10:27:25;;;;;;;;;;;18.80;99.90;;;;;;4375861;32;20099;-76
2022/07/11 10:29:57;;;;;;;;;;;18.80;99.90;;;;;;4361898;32;43973;-75
2022/07/11 10:32:24;;;;;;;;;;;18.80;99.90;;;;;;4375331;32;43903;-75
2022/07/11 10:35:07;;;;;;;;;;;18.80;99.90;;;;;;4361360;32;44989;-76
2022/07/11 10:37:51;;;;;;;;;;;18.80;99.90;;;;;;4374791;32;42966;-76
2022/07/11 10:40:37;;;;;;;;;;;18.80;99.90;;;;;;4361687;32;43710;-76
2022/07/11 10:43:04;;;;;;;;;;;18.90;99.90;;;;;;4374916;32;42930;-76
2022/07/11 10:45:48;;;;;;;;;;;18.90;99.90;;;;;;4374880;32;44325;-76
2022/07/11 10:48:19;;;;;;;;;;;18.90;99.90;;;;;;4362260;32;43226;-75
2022/07/11 10:50:46;;;;;;;;;;;18.90;99.90;;;;;;4375089;32;42545;-77
2022/07/11 10:53:21;;;;;;;;;;;18.90;99.90;;;;;;4374737;32;42610;-75
2022/07/11 10:56:03;;;;;;;;;;;18.90;99.90;;;;;;4374633;32;42546;-76
2022/07/11 10:58:31;;;;;;;;;;;18.90;99.90;;;;;;4375945;32;19992;-76
2022/07/11 11:01:09;;;;;;;;;;;18.90;99.90;;;;;;4374970;32;42733;-76
2022/07/11 11:03:37;;;;;;;;;;;18.90;99.90;;;;;;4361744;32;45514;-75
2022/07/11 11:06:04;;;;;;;;;;;18.90;99.90;;;;;;4374431;32;45059;-76
2022/07/11 11:08:31;;;;;;;;;;;19.00;99.90;;;;;;4361139;32;43865;-75
2022/07/11 11:10:59;;;;;;;;;;;18.90;99.90;;;;;;4361573;32;44243;-75
2022/07/11 11:13:27;;;;;;;;;;;19.00;99.90;;;;;;4375004;32;45818;-77
2022/07/11 11:15:58;;;;;;;;;;;19.00;99.90;;;;;;4374963;32;43932;-76
2022/07/11 11:18:25;;;;;;;;;;;19.00;99.90;;;;;;4375130;32;38350;-76
2022/07/11 11:21:02;;;;;;;;;;;19.00;99.90;;;;;;4361314;32;43939;-76
2022/07/11 11:23:36;;;;;;;;;;;19.00;99.90;;;;;;4374421;32;42779;-76
2022/07/11 11:26:07;;;;;;;;;;;19.00;99.90;;;;;;4374862;32;43483;-76
2022/07/11 11:28:35;;;;;;;;;;;19.00;99.90;;;;;;4375136;32;20448;-76
2022/07/11 11:31:03;;;;;;;;;;;19.00;99.90;;;;;;4374242;32;44901;-76
2022/07/11 11:33:32;;;;;;;;;;;19.00;99.90;;;;;;4361663;32;43387;-76
2022/07/11 11:36:06;;;;;;;;;;;19.00;99.90;;;;;;4374395;32;44694;-75
2022/07/11 11:38:37;;;;;;;;;;;19.00;99.90;;;;;;4361543;32;45454;-76
2022/07/11 11:41:05;;;;;;;;;;;19.00;99.90;;;;;;4374796;32;43708;-76
2022/07/11 11:43:33;;;;;;;;;;;19.00;99.90;;;;;;4374275;32;44257;-76
2022/07/11 11:46:01;;;;;;;;;;;19.00;99.90;;;;;;4360907;32;43033;-76
2022/07/11 11:48:33;;;;;;;;;;;19.10;99.90;;;;;;4374724;32;43213;-76
2022/07/11 11:51:01;;;;;;;;;;;19.10;99.90;;;;;;4361175;32;44011;-76
2022/07/11 11:53:34;;;;;;;;;;;19.10;99.90;;;;;;4374605;32;43638;-77
2022/07/11 11:56:10;;;;;;;;;;;19.10;99.90;;;;;;4374930;32;44237;-77
2022/07/11 11:58:37;;;;;;;;;;;19.10;99.90;;;;;;4376426;32;20025;-76
2022/07/11 12:01:05;;;;;;;;;;;19.10;99.90;;;;;;4377326;32;42642;-76
2022/07/11 12:03:52;;;;;;;;;;;19.10;99.90;;;;;;4376926;32;42985;-76
2022/07/11 12:06:28;;;;;;;;;;;19.10;99.90;;;;;;4376934;32;42681;-78
2022/07/11 12:09:05;;;;;;;;;;;19.10;99.90;;;;;;4376897;32;43020;-75
2022/07/11 12:11:32;;;;;;;;;;;19.20;99.90;;;;;;4377024;32;43946;-75
2022/07/11 12:14:02;;;;;;;;;;;19.20;99.90;;;;;;4377271;32;45799;-77
2022/07/11 12:16:46;;;;;;;;;;;19.20;99.90;;;;;;4376762;32;42126;-76
2022/07/11 12:19:24;;;;;;;;;;;19.30;99.90;;;;;;4377071;32;43212;-76
2022/07/11 12:21:53;;;;;;;;;;;19.30;99.90;;;;;;4363668;32;44114;-76
2022/07/11 12:24:21;;;;;;;;;;;19.40;99.90;;;;;;4363796;32;42470;-76
2022/07/11 12:26:48;;;;;;;;;;;19.40;99.90;;;;;;4363644;32;42790;-76
2022/07/11 12:29:20;;;;;;;;;;;19.40;99.90;;;;;;4377329;32;20005;-76
2022/07/11 12:31:50;;;;;;;;;;;19.40;99.90;;;;;;4363056;32;43122;-76
2022/07/11 12:34:19;;;;;;;;;;;19.40;99.90;;;;;;4363074;32;42614;-75
2022/07/11 12:36:47;;;;;;;;;;;19.50;99.90;;;;;;4376835;32;42929;-76
2022/07/11 12:39:24;;;;;;;;;;;19.50;99.90;;;;;;4363409;32;43996;-76
2022/07/11 12:41:52;;;;;;;;;;;19.50;99.90;;;;;;4376877;32;42707;-76
2022/07/11 12:47:11;;;;;;;;;;;19.50;99.90;;;;;;4376778;32;43770;-75
2022/07/11 12:49:44;;;;;;;;;;;19.60;99.90;;;;;;4376764;32;43188;-76
2022/07/11 12:52:12;;;;;;;;;;;19.60;99.90;;;;;;4363510;32;43662;-76
2022/07/11 12:54:41;;;;;;;;;;;19.60;99.90;;;;;;4376244;32;43726;-76
2022/07/11 12:57:14;;;;;;;;;;;19.60;99.90;;;;;;4362856;32;44936;-76
2022/07/11 12:59:42;;;;;;;;;;;19.60;99.90;;;;;;4377711;32;19997;-76
2022/07/11 13:02:10;;;;;;;;;;;19.70;99.90;;;;;;4362599;32;43536;-77
2022/07/11 13:04:37;;;;;;;;;;;19.70;99.90;;;;;;4376542;32;43527;-78
2022/07/11 13:10:06;;;;;;;;;;;19.80;99.90;;;;;;4376296;32;42534;-76
2022/07/11 13:12:33;;;;;;;;;;;19.80;99.90;;;;;;4376308;32;44581;-78
2022/07/11 13:15:10;;;;;;;;;;;19.80;99.90;;;;;;4376485;32;44922;-76
2022/07/11 13:17:41;;;;;;;;;;;19.80;99.90;;;;;;4376428;32;43312;-76
2022/07/11 13:20:13;;;;;;;;;;;19.90;99.90;;;;;;4362556;32;44406;-76
2022/07/11 13:22:41;;;;;;;;;;;19.90;99.90;;;;;;4362974;32;44284;-77
2022/07/11 13:25:10;;;;;;;;;;;19.90;99.90;;;;;;4376279;32;43320;-78
2022/07/11 13:27:38;;;;;;;;;;;19.90;99.90;;;;;;4362282;32;44364;-77
2022/07/11 13:30:11;;;;;;;;;;;19.90;99.90;;;;;;4377071;32;20045;-76
2022/07/11 13:32:38;;;;;;;;;;;19.90;99.90;;;;;;4362417;32;44148;-77
2022/07/11 13:35:06;;;;;;;;;;;20.00;99.90;;;;;;4362736;32;43978;-80
2022/07/11 13:37:43;;;;;;;;;;;19.90;99.90;;;;;;4376193;32;44135;-76
2022/07/11 13:40:14;;;;;;;;;;;20.00;99.90;;;;;;4375935;32;43377;-77
2022/07/11 13:42:44;;;;;;;;;;;20.00;99.90;;;;;;4362330;32;42874;-77
2022/07/11 13:45:12;;;;;;;;;;;20.00;99.90;;;;;;4376127;32;43236;-77
2022/07/11 13:47:40;;;;;;;;;;;20.00;99.90;;;;;;4362598;32;43889;-77
2022/07/11 13:50:07;;;;;;;;;;;20.10;99.90;;;;;;4375733;32;43314;-77
2022/07/11 13:52:35;;;;;;;;;;;20.10;99.90;;;;;;4362588;32;43020;-77
2022/07/11 13:55:02;;;;;;;;;;;20.10;99.90;;;;;;4361985;32;44104;-77
2022/07/11 13:57:29;;;;;;;;;;;20.20;99.90;;;;;;4375965;32;43505;-77
2022/07/11 13:59:57;;;;;;;;;;;20.20;99.90;;;;;;4362461;32;45065;-77
2022/07/11 14:02:30;;;;;;;;;;;20.20;99.90;;;;;;4359031;32;44643;-77
2022/07/11 14:04:57;;;;;;;;;;;20.20;99.90;;;;;;4359275;32;43965;-78
2022/07/11 14:07:25;;;;;;;;;;;20.20;99.90;;;;;;4360766;32;43286;-79
2022/07/11 14:09:53;;;;;;;;;;;20.20;99.90;;;;;;4359747;32;43360;-76
2022/07/11 14:12:21;;;;;;;;;;;20.20;99.90;;;;;;4360375;32;42650;-77
2022/07/11 14:14:48;;;;;;;;;;;20.30;99.90;;;;;;4360422;32;42866;-76
2022/07/11 14:17:15;;;;;;;;;;;20.30;99.90;;;;;;4359499;32;45375;-76
2022/07/11 14:19:42;;;;;;;;;;;20.30;99.90;;;;;;4359413;32;42587;-76
2022/07/11 14:22:09;;;;;;;;;;;20.30;99.90;;;;;;4360205;32;42307;-76
2022/07/11 14:24:36;;;;;;;;;;;20.30;99.90;;;;;;4359631;32;43499;-77
2022/07/11 14:27:04;;;;;;;;;;;20.30;99.90;;;;;;4359247;32;44010;-79
2022/07/11 14:29:31;;;;;;;;;;;20.30;99.90;;;;;;4360468;32;43955;-76
2022/07/11 14:31:58;;;;;;;;;;;20.30;99.90;;;;;;4360426;32;43470;-77
2022/07/11 14:34:29;;;;;;;;;;;20.30;99.90;;;;;;4360399;32;43552;-77
2022/07/11 14:36:56;;;;;;;;;;;20.30;99.90;;;;;;4360000;32;43103;-79
2022/07/11 14:39:23;;;;;;;;;;;20.30;99.90;;;;;;4360114;32;43593;-77
2022/07/11 14:41:50;;;;;;;;;;;20.30;99.90;;;;;;4359814;32;43692;-77
2022/07/11 14:44:17;;;;;;;;;;;20.40;99.90;;;;;;4359842;32;43631;-78